Terminal Aerodrome Forecast
Issued by NWS Brownsville, TX

Home | Current Version | Previous Version | Text Only | Print | Product List | Glossary On
Versions: 1 2 3 4 5 6 7 8 9 10 11 12 13 14 15 16 17 18 19 20 21 22 23 24 25 26 27 28 29 30
518
FTUS44 KBRO 261041 AAE
TAFMFE
TAF AMD
KMFE 261041Z 2611/2706 12004KT 5SM BR BKN029
      TEMPO 2611/2613 BKN011
     FM261600 14015KT 6SM HZ BKN025
     FM261700 15016G22KT 6SM BR SCT030 BKN050 OVC250
     FM270200 14012G18KT P6SM BKN015 PROB30 2702/2706 4SM -TSRA
      BKN010CB=

USA.gov is the U.S. government's official web portal to all federal, state and local government web resources and services.